Time;durP1;ratioP1;P1;durP2;ratioP2;P2;SDS_P1;SDS_P2;PMS_P1;PMS_P2;Temp;Humidity;BMP_temperature;BMP_pressure;BME280_temperature;BME280_humidity;BME280_pressure;Samples;Min_cycle;Max_cycle;Signal;HPM_P1;HPM_P2
2023/12/08 00:01:10;;;;;;;;;;;;;;;;;;4148585;28;20353;-54
2023/12/08 00:03:12;;;;;;;;;;;;;;;;;;4148514;28;19928;-54
2023/12/08 00:05:14;;;;;;;;;;;;;;;;;;4148638;28;19921;-55
2023/12/08 00:07:15;;;;;;;;;;;;;;;;;;4148014;28;19921;-54
2023/12/08 00:09:17;;;;;;;;;;;;;;;;;;4130956;28;19929;-54
2023/12/08 00:11:18;;;;;;;;;;;;;;;;;;4132244;28;20386;-54
2023/12/08 00:13:20;;;;;;;;;;;;;;;;;;4146913;28;20386;-54
2023/12/08 00:15:21;;;;;;;;;;;;;;;;;;4155385;28;19921;-53
2023/12/08 00:17:23;;;;;;;;;;;;;;;;;;4148625;28;20009;-54
2023/12/08 00:19:25;;;;;;;;;;;;;;;;;;4148555;28;20332;-55
2023/12/08 00:21:26;;;;;;;;;;;;;;;;;;4148502;28;20369;-55
2023/12/08 00:23:28;;;;;;;;;;;;;;;;;;4148614;28;19933;-55
2023/12/08 00:25:30;;;;;;;;;;;;;;;;;;4148356;28;20036;-55
2023/12/08 00:27:31;;;;;;;;;;;;;;;;;;4148371;28;19975;-53
2023/12/08 00:29:33;;;;;;;;;;;;;;;;;;4148399;28;19925;-55
2023/12/08 00:31:34;;;;;;;;;;;;;;;;;;4148301;28;19922;-55
2023/12/08 00:33:36;;;;;;;;;;;;;;;;;;4148251;28;20336;-55
2023/12/08 00:35:37;;;;;;;;;;;;;;;;;;4148499;28;19980;-55
2023/12/08 00:37:39;;;;;;;;;;;;;;;;;;4148174;28;20374;-55
2023/12/08 00:39:41;;;;;;;;;;;;;;;;;;4148430;28;19971;-54
2023/12/08 00:41:42;;;;;;;;;;;;;;;;;;4148396;28;19967;-54
2023/12/08 00:43:43;;;;;;;;;;;;;;;;;;4148368;28;19925;-54
2023/12/08 00:45:45;;;;;;;;;;;;;;;;;;4148450;28;19956;-54
2023/12/08 00:47:46;;;;;;;;;;;;;;;;;;4148232;28;19951;-54
2023/12/08 00:49:48;;;;;;;;;;;;;;;;;;4148320;28;20396;-54
2023/12/08 00:51:50;;;;;;;;;;;;;;;;;;4148073;28;20569;-54
2023/12/08 00:53:51;;;;;;;;;;;;;;;;;;4157173;28;20344;-56
2023/12/08 00:55:53;;;;;;;;;;;;;;;;;;4148252;28;20012;-55
2023/12/08 00:57:54;;;;;;;;;;;;;;;;;;4130693;28;19921;-56
2023/12/08 00:59:56;;;;;;;;;;;;;;;;;;4147972;28;19928;-56
2023/12/08 01:01:57;;;;;;;;;;;;;;;;;;4148024;28;20156;-56
2023/12/08 01:03:59;;;;;;;;;;;;;;;;;;4130468;28;19922;-55
2023/12/08 01:06:00;;;;;;;;;;;;;;;;;;4131784;28;19926;-54
2023/12/08 01:08:04;;;;;;;;;;;;;;;;;;4134435;28;19988;-55
2023/12/08 01:10:07;;;;;;;;;;;;;;;;;;4164260;28;20385;-54
2023/12/08 01:12:08;;;;;;;;;;;;;;;;;;4164612;28;20292;-55
2023/12/08 01:14:10;;;;;;;;;;;;;;;;;;4146705;28;19979;-55
2023/12/08 01:16:11;;;;;;;;;;;;;;;;;;4164680;28;19967;-55
2023/12/08 01:18:13;;;;;;;;;;;;;;;;;;4166345;28;20431;-55
2023/12/08 01:20:14;;;;;;;;;;;;;;;;;;4167084;28;19921;-55
2023/12/08 01:22:16;;;;;;;;;;;;;;;;;;4151062;28;19968;-55
2023/12/08 01:24:17;;;;;;;;;;;;;;;;;;4151127;28;19929;-54
2023/12/08 01:26:19;;;;;;;;;;;;;;;;;;4151152;28;19968;-54
2023/12/08 01:28:20;;;;;;;;;;;;;;;;;;4150897;28;19925;-55
2023/12/08 01:30:22;;;;;;;;;;;;;;;;;;4150936;28;19922;-54
2023/12/08 01:32:23;;;;;;;;;;;;;;;;;;4151167;28;20298;-55
2023/12/08 01:34:25;;;;;;;;;;;;;;;;;;4151478;28;20013;-54
2023/12/08 01:36:26;;;;;;;;;;;;;;;;;;4151130;28;19925;-54
2023/12/08 01:38:42;;;;;;;;;;;;;;;;;;4151078;28;19921;-55
2023/12/08 01:40:43;;;;;;;;;;;;;;;;;;4150967;28;19925;-54
2023/12/08 01:42:47;;;;;;;;;;;;;;;;;;4150886;28;19933;-53
2023/12/08 01:44:49;;;;;;;;;;;;;;;;;;4150962;28;19926;-54
2023/12/08 01:46:51;;;;;;;;;;;;;;;;;;4150960;28;19968;-54
2023/12/08 01:48:52;;;;;;;;;;;;;;;;;;4150660;28;19925;-54
2023/12/08 01:50:54;;;;;;;;;;;;;;;;;;4121560;28;20109;-54
2023/12/08 01:52:55;;;;;;;;;;;;;;;;;;4148522;28;19931;-55
2023/12/08 01:54:57;;;;;;;;;;;;;;;;;;4167149;28;19925;-54
2023/12/08 01:57:01;;;;;;;;;;;;;;;;;;4166803;28;19932;-54
2023/12/08 01:59:03;;;;;;;;;;;;;;;;;;4166266;28;19924;-54
2023/12/08 02:01:04;;;;;;;;;;;;;;;;;;4151121;28;19922;-54
2023/12/08 02:03:06;;;;;;;;;;;;;;;;;;4177271;22;19921;-59
2023/12/08 02:05:08;;;;;;;;;;;;;;;;;;4167156;28;20111;-61
2023/12/08 02:07:10;;;;;;;;;;;;;;;;;;4166802;28;19940;-61
2023/12/08 02:09:12;;;;;;;;;;;;;;;;;;4177504;28;20417;-61
2023/12/08 02:11:14;;;;;;;;;;;;;;;;;;4166434;28;19971;-61
2023/12/08 02:13:20;;;;;;;;;;;;;;;;;;4149082;28;19921;-61
2023/12/08 02:15:22;;;;;;;;;;;;;;;;;;4166809;28;20426;-61
2023/12/08 02:17:23;;;;;;;;;;;;;;;;;;4166383;28;19936;-60
2023/12/08 02:19:25;;;;;;;;;;;;;;;;;;4166670;28;19967;-61
2023/12/08 02:21:27;;;;;;;;;;;;;;;;;;4166833;28;19921;-61
2023/12/08 02:23:28;;;;;;;;;;;;;;;;;;4166707;28;19928;-61
2023/12/08 02:25:30;;;;;;;;;;;;;;;;;;4166773;28;19936;-61
2023/12/08 02:27:31;;;;;;;;;;;;;;;;;;4166600;28;20414;-61
2023/12/08 02:29:33;;;;;;;;;;;;;;;;;;4165990;28;20007;-61
2023/12/08 02:31:35;;;;;;;;;;;;;;;;;;4166724;28;19921;-61
2023/12/08 02:33:36;;;;;;;;;;;;;;;;;;4148633;28;19921;-61
2023/12/08 02:35:38;;;;;;;;;;;;;;;;;;4166485;28;19921;-61
2023/12/08 02:37:39;;;;;;;;;;;;;;;;;;4166665;28;19966;-61
2023/12/08 02:39:41;;;;;;;;;;;;;;;;;;4166408;28;20269;-60
2023/12/08 02:41:42;;;;;;;;;;;;;;;;;;4165459;28;20364;-61
2023/12/08 02:43:47;;;;;;;;;;;;;;;;;;4148539;28;19929;-61
2023/12/08 02:45:48;;;;;;;;;;;;;;;;;;4131303;28;19922;-61
2023/12/08 02:47:52;;;;;;;;;;;;;;;;;;4133024;28;19961;-61
2023/12/08 02:49:54;;;;;;;;;;;;;;;;;;4149931;28;19925;-61
2023/12/08 02:51:56;;;;;;;;;;;;;;;;;;4149840;28;19954;-61
2023/12/08 02:53:57;;;;;;;;;;;;;;;;;;4165403;28;20288;-60
2023/12/08 02:55:59;;;;;;;;;;;;;;;;;;4160511;28;19928;-61
2023/12/08 02:58:00;;;;;;;;;;;;;;;;;;4149940;28;19968;-61
2023/12/08 03:00:02;;;;;;;;;;;;;;;;;;4149768;28;19926;-60
2023/12/08 03:02:04;;;;;;;;;;;;;;;;;;4149672;28;19922;-61
2023/12/08 03:04:06;;;;;;;;;;;;;;;;;;4149468;28;20372;-59
2023/12/08 03:06:07;;;;;;;;;;;;;;;;;;4132109;28;19973;-61
2023/12/08 03:08:09;;;;;;;;;;;;;;;;;;4153819;28;20360;-60
2023/12/08 03:10:10;;;;;;;;;;;;;;;;;;4182564;28;20288;-61
2023/12/08 03:12:12;;;;;;;;;;;;;;;;;;4164845;28;20007;-61
2023/12/08 03:14:14;;;;;;;;;;;;;;;;;;4135536;28;19922;-61
2023/12/08 03:16:16;;;;;;;;;;;;;;;;;;4165945;28;19925;-61
2023/12/08 03:18:17;;;;;;;;;;;;;;;;;;4178647;28;19931;-61
2023/12/08 03:20:19;;;;;;;;;;;;;;;;;;4180565;28;20023;-60
2023/12/08 03:22:20;;;;;;;;;;;;;;;;;;4180870;28;19950;-61
2023/12/08 03:24:22;;;;;;;;;;;;;;;;;;4180872;28;19920;-60
2023/12/08 03:26:23;;;;;;;;;;;;;;;;;;4180612;28;19920;-61
2023/12/08 03:28:26;;;;;;;;;;;;;;;;;;4163737;28;19960;-59
2023/12/08 03:30:27;;;;;;;;;;;;;;;;;;4181267;28;19925;-60
2023/12/08 03:32:30;;;;;;;;;;;;;;;;;;4153244;28;20416;-60
2023/12/08 03:34:34;;;;;;;;;;;;;;;;;;4165407;28;19936;-60
2023/12/08 03:36:39;;;;;;;;;;;;;;;;;;4147931;28;20317;-60
2023/12/08 03:38:40;;;;;;;;;;;;;;;;;;4165250;28;20285;-60
2023/12/08 03:40:42;;;;;;;;;;;;;;;;;;4165247;28;20288;-61
2023/12/08 03:42:43;;;;;;;;;;;;;;;;;;4165304;28;19927;-60
2023/12/08 03:44:45;;;;;;;;;;;;;;;;;;4147820;28;19921;-61
2023/12/08 03:46:46;;;;;;;;;;;;;;;;;;4165578;28;19972;-61
2023/12/08 03:48:48;;;;;;;;;;;;;;;;;;4165596;28;19967;-61
2023/12/08 03:50:52;;;;;;;;;;;;;;;;;;4165472;28;19960;-61
2023/12/08 03:52:54;;;;;;;;;;;;;;;;;;4168692;28;19921;-61
2023/12/08 03:54:56;;;;;;;;;;;;;;;;;;4181658;28;19921;-61
2023/12/08 03:56:58;;;;;;;;;;;;;;;;;;4164233;28;19921;-61
2023/12/08 03:58:59;;;;;;;;;;;;;;;;;;4181914;28;20359;-61
2023/12/08 04:01:04;;;;;;;;;;;;;;;;;;4181444;28;19929;-61
2023/12/08 04:03:05;;;;;;;;;;;;;;;;;;4181445;28;20297;-61
2023/12/08 04:05:07;;;;;;;;;;;;;;;;;;4181619;28;19921;-61
2023/12/08 04:07:08;;;;;;;;;;;;;;;;;;4163792;28;20373;-60
2023/12/08 04:09:10;;;;;;;;;;;;;;;;;;4179338;28;19967;-61
2023/12/08 04:11:12;;;;;;;;;;;;;;;;;;4147181;28;19925;-61
2023/12/08 04:13:14;;;;;;;;;;;;;;;;;;4165039;28;19928;-61
2023/12/08 04:15:15;;;;;;;;;;;;;;;;;;4147859;28;19921;-61
2023/12/08 04:17:17;;;;;;;;;;;;;;;;;;4165300;28;20377;-61
2023/12/08 04:19:19;;;;;;;;;;;;;;;;;;4165106;28;19921;-59
2023/12/08 04:21:21;;;;;;;;;;;;;;;;;;4147322;28;20340;-61
2023/12/08 04:23:23;;;;;;;;;;;;;;;;;;4164999;28;19971;-61
2023/12/08 04:25:24;;;;;;;;;;;;;;;;;;4164798;28;19921;-60
2023/12/08 04:27:26;;;;;;;;;;;;;;;;;;4147171;28;20000;-60
2023/12/08 04:29:28;;;;;;;;;;;;;;;;;;4164980;28;19921;-60
2023/12/08 04:31:29;;;;;;;;;;;;;;;;;;4164727;28;19971;-60
2023/12/08 04:33:31;;;;;;;;;;;;;;;;;;4164740;28;19929;-61
2023/12/08 04:35:35;;;;;;;;;;;;;;;;;;4147430;28;20340;-60
2023/12/08 04:37:37;;;;;;;;;;;;;;;;;;4163341;28;20012;-60
2023/12/08 04:39:40;;;;;;;;;;;;;;;;;;4164810;28;19927;-61
2023/12/08 04:41:42;;;;;;;;;;;;;;;;;;4164582;28;19925;-61
2023/12/08 04:43:43;;;;;;;;;;;;;;;;;;4164767;28;19925;-61
2023/12/08 04:48:41;;;;;;;;;;;;;;;;;;4146218;28;19986;-60
2023/12/08 04:50:43;;;;;;;;;;;;;;;;;;4148215;28;19922;-61
2023/12/08 04:52:45;;;;;;;;;;;;;;;;;;4160681;28;20320;-60
2023/12/08 04:54:48;;;;;;;;;;;;;;;;;;4166418;28;19924;-61
2023/12/08 04:56:50;;;;;;;;;;;;;;;;;;4184642;28;20276;-61
2023/12/08 04:58:51;;;;;;;;;;;;;;;;;;4184279;28;20016;-61
2023/12/08 05:00:53;;;;;;;;;;;;;;;;;;4184222;28;19920;-61
2023/12/08 05:02:57;;;;;;;;;;;;;;;;;;4184233;28;19920;-61
2023/12/08 05:04:59;;;;;;;;;;;;;;;;;;4184311;28;19921;-61
2023/12/08 05:07:01;;;;;;;;;;;;;;;;;;4151860;28;19932;-60
2023/12/08 05:09:02;;;;;;;;;;;;;;;;;;4177215;28;19921;-61
2023/12/08 05:11:04;;;;;;;;;;;;;;;;;;4184046;28;19927;-60
2023/12/08 05:13:05;;;;;;;;;;;;;;;;;;4184350;28;20338;-61
2023/12/08 05:15:07;;;;;;;;;;;;;;;;;;4184091;28;19924;-60
2023/12/08 05:17:08;;;;;;;;;;;;;;;;;;4184289;28;19921;-60
2023/12/08 05:19:10;;;;;;;;;;;;;;;;;;4184119;28;19940;-61
2023/12/08 05:21:12;;;;;;;;;;;;;;;;;;4183871;28;19931;-60
2023/12/08 05:23:13;;;;;;;;;;;;;;;;;;4184082;28;19943;-61
2023/12/08 05:25:15;;;;;;;;;;;;;;;;;;4171048;28;20317;-60
2023/12/08 05:27:16;;;;;;;;;;;;;;;;;;4167425;28;19974;-60
2023/12/08 05:29:18;;;;;;;;;;;;;;;;;;4167399;28;20400;-60
2023/12/08 05:31:19;;;;;;;;;;;;;;;;;;4167218;28;19928;-60
2023/12/08 05:33:21;;;;;;;;;;;;;;;;;;4167427;28;20412;-60
2023/12/08 05:35:22;;;;;;;;;;;;;;;;;;4149782;28;20020;-60
2023/12/08 05:37:24;;;;;;;;;;;;;;;;;;4167223;28;19963;-61
2023/12/08 05:39:26;;;;;;;;;;;;;;;;;;4167458;28;19975;-61
2023/12/08 05:41:27;;;;;;;;;;;;;;;;;;4167112;28;19967;-61
2023/12/08 05:43:29;;;;;;;;;;;;;;;;;;4167256;28;20368;-61
2023/12/08 05:45:31;;;;;;;;;;;;;;;;;;4165718;28;19925;-59
2023/12/08 05:47:32;;;;;;;;;;;;;;;;;;4161739;28;19960;-60
2023/12/08 05:49:34;;;;;;;;;;;;;;;;;;4161782;28;19921;-60
2023/12/08 05:51:36;;;;;;;;;;;;;;;;;;4159202;28;19948;-60
2023/12/08 05:53:37;;;;;;;;;;;;;;;;;;4179797;28;19946;-60
2023/12/08 05:55:41;;;;;;;;;;;;;;;;;;4163142;28;19921;-60
2023/12/08 05:57:42;;;;;;;;;;;;;;;;;;4149410;28;19921;-61
2023/12/08 05:59:44;;;;;;;;;;;;;;;;;;4166981;28;19927;-60
2023/12/08 06:01:46;;;;;;;;;;;;;;;;;;4166642;28;19936;-61
2023/12/08 06:03:47;;;;;;;;;;;;;;;;;;4165609;28;19990;-61
2023/12/08 06:05:48;;;;;;;;;;;;;;;;;;4166332;28;20363;-61
2023/12/08 06:07:50;;;;;;;;;;;;;;;;;;4167101;28;19921;-61
2023/12/08 06:09:52;;;;;;;;;;;;;;;;;;4182644;28;19974;-61
2023/12/08 06:11:53;;;;;;;;;;;;;;;;;;4183149;28;20380;-61
2023/12/08 06:13:55;;;;;;;;;;;;;;;;;;4183210;28;19935;-60
2023/12/08 06:15:56;;;;;;;;;;;;;;;;;;4183280;28;20291;-61
2023/12/08 06:17:58;;;;;;;;;;;;;;;;;;4183513;28;19921;-60
2023/12/08 06:20:00;;;;;;;;;;;;;;;;;;4182672;28;20380;-60
2023/12/08 06:22:02;;;;;;;;;;;;;;;;;;4148952;28;19925;-60
2023/12/08 06:24:03;;;;;;;;;;;;;;;;;;4166739;28;19975;-61
2023/12/08 06:26:05;;;;;;;;;;;;;;;;;;4166402;28;19932;-61
2023/12/08 06:28:06;;;;;;;;;;;;;;;;;;4166721;28;20011;-60
2023/12/08 06:30:08;;;;;;;;;;;;;;;;;;4166501;28;19925;-60
2023/12/08 06:32:09;;;;;;;;;;;;;;;;;;4166385;28;19929;-60
2023/12/08 06:34:11;;;;;;;;;;;;;;;;;;4166140;28;20343;-61
2023/12/08 06:36:17;;;;;;;;;;;;;;;;;;4166412;28;19925;-60
2023/12/08 06:38:21;;;;;;;;;;;;;;;;;;4148842;28;19921;-60
2023/12/08 06:40:22;;;;;;;;;;;;;;;;;;4136815;28;19982;-61
2023/12/08 06:42:24;;;;;;;;;;;;;;;;;;4158201;28;19921;-60
2023/12/08 06:44:25;;;;;;;;;;;;;;;;;;4157784;28;19925;-59
2023/12/08 06:46:27;;;;;;;;;;;;;;;;;;4158582;28;19983;-61
2023/12/08 06:48:28;;;;;;;;;;;;;;;;;;4151553;28;19956;-60
2023/12/08 06:50:30;;;;;;;;;;;;;;;;;;4148510;28;20460;-61
2023/12/08 06:52:32;;;;;;;;;;;;;;;;;;4158895;28;20351;-60
2023/12/08 06:54:33;;;;;;;;;;;;;;;;;;4162940;28;19955;-61
2023/12/08 06:56:35;;;;;;;;;;;;;;;;;;4131688;28;20077;-61
2023/12/08 06:58:37;;;;;;;;;;;;;;;;;;4123998;28;19932;-60
2023/12/08 07:00:38;;;;;;;;;;;;;;;;;;4161682;28;19975;-60
2023/12/08 07:02:40;;;;;;;;;;;;;;;;;;4148433;28;20369;-60
2023/12/08 07:04:42;;;;;;;;;;;;;;;;;;4148097;28;19931;-60
2023/12/08 07:06:45;;;;;;;;;;;;;;;;;;4166070;28;19921;-59
2023/12/08 07:08:46;;;;;;;;;;;;;;;;;;4155106;28;19932;-59
2023/12/08 07:10:48;;;;;;;;;;;;;;;;;;4158628;28;19956;-61
2023/12/08 07:12:49;;;;;;;;;;;;;;;;;;4132336;28;19925;-60
2023/12/08 07:14:52;;;;;;;;;;;;;;;;;;4155135;28;19921;-58
2023/12/08 07:16:54;;;;;;;;;;;;;;;;;;4160698;28;19921;-60
2023/12/08 07:18:57;;;;;;;;;;;;;;;;;;4165537;28;19925;-61
2023/12/08 07:20:59;;;;;;;;;;;;;;;;;;4163180;28;21798;-61
2023/12/08 07:23:00;;;;;;;;;;;;;;;;;;4158512;28;20360;-60
2023/12/08 07:25:03;;;;;;;;;;;;;;;;;;4159918;28;20389;-60
2023/12/08 07:27:04;;;;;;;;;;;;;;;;;;4152698;28;20347;-60
2023/12/08 07:29:06;;;;;;;;;;;;;;;;;;4165549;28;19927;-61
2023/12/08 07:31:08;;;;;;;;;;;;;;;;;;4148134;28;19929;-60
2023/12/08 07:33:10;;;;;;;;;;;;;;;;;;4165322;28;19928;-61
2023/12/08 07:35:11;;;;;;;;;;;;;;;;;;4148078;28;20451;-60
2023/12/08 07:37:13;;;;;;;;;;;;;;;;;;4154389;28;19921;-60
2023/12/08 07:39:15;;;;;;;;;;;;;;;;;;4154212;28;20289;-60
2023/12/08 07:41:16;;;;;;;;;;;;;;;;;;4162076;28;19921;-60
2023/12/08 07:43:18;;;;;;;;;;;;;;;;;;4148940;28;20343;-61
2023/12/08 07:45:20;;;;;;;;;;;;;;;;;;4149005;28;19925;-60
2023/12/08 07:47:21;;;;;;;;;;;;;;;;;;4131570;28;19922;-59
2023/12/08 07:49:23;;;;;;;;;;;;;;;;;;4131496;28;19989;-59
2023/12/08 07:51:25;;;;;;;;;;;;;;;;;;4148845;28;19968;-58
2023/12/08 07:53:26;;;;;;;;;;;;;;;;;;4171495;28;19943;-58
2023/12/08 07:55:28;;;;;;;;;;;;;;;;;;4156902;28;19921;-58
2023/12/08 07:57:29;;;;;;;;;;;;;;;;;;4147154;28;20306;-58
2023/12/08 07:59:31;;;;;;;;;;;;;;;;;;4153229;28;19925;-58
2023/12/08 08:01:36;;;;;;;;;;;;;;;;;;4135009;28;19929;-58
2023/12/08 08:03:37;;;;;;;;;;;;;;;;;;4163393;28;19925;-58
2023/12/08 08:05:39;;;;;;;;;;;;;;;;;;4163904;28;19925;-59
2023/12/08 08:07:43;;;;;;;;;;;;;;;;;;4161853;28;19971;-59
2023/12/08 08:09:45;;;;;;;;;;;;;;;;;;4152345;28;19921;-59
2023/12/08 08:11:46;;;;;;;;;;;;;;;;;;4156678;28;20479;-59
2023/12/08 08:13:48;;;;;;;;;;;;;;;;;;4161601;28;19925;-59
2023/12/08 08:15:49;;;;;;;;;;;;;;;;;;4140298;28;20028;-59
2023/12/08 08:17:51;;;;;;;;;;;;;;;;;;4167135;28;19994;-59
2023/12/08 08:19:53;;;;;;;;;;;;;;;;;;4154271;28;19960;-58
2023/12/08 08:21:55;;;;;;;;;;;;;;;;;;4161784;28;20395;-59
2023/12/08 08:24:17;;;;;;;;;;;;;;;;;;4147683;28;19929;-59
2023/12/08 08:26:21;;;;;;;;;;;;;;;;;;4151313;28;19952;-59
2023/12/08 08:28:24;;;;;;;;;;;;;;;;;;4152943;28;19936;-59
2023/12/08 08:30:26;;;;;;;;;;;;;;;;;;4159960;28;20011;-59
2023/12/08 08:32:27;;;;;;;;;;;;;;;;;;4145368;28;19921;-59
2023/12/08 08:34:29;;;;;;;;;;;;;;;;;;4156335;28;19925;-59
2023/12/08 08:36:31;;;;;;;;;;;;;;;;;;4128722;28;19932;-60
2023/12/08 08:38:33;;;;;;;;;;;;;;;;;;4141565;28;21664;-59
2023/12/08 08:40:34;;;;;;;;;;;;;;;;;;4161137;28;19921;-60
2023/12/08 08:42:36;;;;;;;;;;;;;;;;;;4137046;28;19975;-60
2023/12/08 08:44:39;;;;;;;;;;;;;;;;;;4134516;28;19922;-60
2023/12/08 08:46:41;;;;;;;;;;;;;;;;;;4153451;28;19948;-60
2023/12/08 08:48:42;;;;;;;;;;;;;;;;;;4140654;28;19925;-60
2023/12/08 08:50:45;;;;;;;;;;;;;;;;;;4129742;28;19997;-60
2023/12/08 08:52:50;;;;;;;;;;;;;;;;;;4168434;28;20019;-60
2023/12/08 08:54:51;;;;;;;;;;;;;;;;;;4158533;28;20075;-60
2023/12/08 08:56:53;;;;;;;;;;;;;;;;;;4162368;28;19983;-60
2023/12/08 08:58:55;;;;;;;;;;;;;;;;;;4146742;28;20296;-60
2023/12/08 09:00:56;;;;;;;;;;;;;;;;;;4156279;28;19921;-60
2023/12/08 09:02:58;;;;;;;;;;;;;;;;;;4126021;28;19925;-60
2023/12/08 09:04:59;;;;;;;;;;;;;;;;;;4130409;28;20422;-60
2023/12/08 09:07:01;;;;;;;;;;;;;;;;;;4148314;28;19925;-60
2023/12/08 09:09:07;;;;;;;;;;;;;;;;;;4153328;28;19929;-60
2023/12/08 09:11:09;;;;;;;;;;;;;;;;;;4142893;28;19929;-59
2023/12/08 09:13:10;;;;;;;;;;;;;;;;;;4141529;28;19925;-60
2023/12/08 09:15:13;;;;;;;;;;;;;;;;;;4140660;28;20016;-69
2023/12/08 09:17:14;;;;;;;;;;;;;;;;;;4143693;28;19922;-68
2023/12/08 09:19:16;;;;;;;;;;;;;;;;;;4145770;28;19926;-69
2023/12/08 09:21:18;;;;;;;;;;;;;;;;;;4147482;28;19925;-69
2023/12/08 09:23:19;;;;;;;;;;;;;;;;;;4148043;28;19921;-68
2023/12/08 09:25:21;;;;;;;;;;;;;;;;;;4147674;28;19956;-68
2023/12/08 09:27:23;;;;;;;;;;;;;;;;;;4147811;28;19925;-68
2023/12/08 09:29:25;;;;;;;;;;;;;;;;;;4147702;28;19925;-68
2023/12/08 09:31:26;;;;;;;;;;;;;;;;;;4145596;28;19929;-68
2023/12/08 09:33:28;;;;;;;;;;;;;;;;;;4130404;28;20068;-68
2023/12/08 09:35:30;;;;;;;;;;;;;;;;;;4131619;28;19976;-68
2023/12/08 09:37:32;;;;;;;;;;;;;;;;;;4131609;28;19961;-68
2023/12/08 09:39:37;;;;;;;;;;;;;;;;;;4133924;28;19953;-68
2023/12/08 09:41:40;;;;;;;;;;;;;;;;;;4134500;28;19922;-68
2023/12/08 09:43:41;;;;;;;;;;;;;;;;;;4134392;28;20329;-68
2023/12/08 09:45:43;;;;;;;;;;;;;;;;;;4134766;28;19933;-68
2023/12/08 09:47:45;;;;;;;;;;;;;;;;;;4143660;28;19944;-68
2023/12/08 09:49:47;;;;;;;;;;;;;;;;;;4150718;28;20345;-68
2023/12/08 09:51:49;;;;;;;;;;;;;;;;;;4150707;28;19929;-68
2023/12/08 09:53:51;;;;;;;;;;;;;;;;;;4165071;28;19931;-68
2023/12/08 09:55:53;;;;;;;;;;;;;;;;;;4166938;28;19933;-68
2023/12/08 09:57:54;;;;;;;;;;;;;;;;;;4167056;28;19921;-68
2023/12/08 09:59:56;;;;;;;;;;;;;;;;;;4166778;28;20439;-68
2023/12/08 10:01:58;;;;;;;;;;;;;;;;;;4166957;28;20012;-68
2023/12/08 10:03:59;;;;;;;;;;;;;;;;;;4177201;28;20347;-68
2023/12/08 10:06:01;;;;;;;;;;;;;;;;;;4174398;28;19921;-68
2023/12/08 10:08:02;;;;;;;;;;;;;;;;;;4167895;28;20051;-67
2023/12/08 10:10:04;;;;;;;;;;;;;;;;;;4183042;28;19932;-68
2023/12/08 10:12:06;;;;;;;;;;;;;;;;;;4183516;28;19928;-68
2023/12/08 10:14:07;;;;;;;;;;;;;;;;;;4183213;28;19920;-68
2023/12/08 10:16:09;;;;;;;;;;;;;;;;;;4179332;28;19920;-68
2023/12/08 10:18:11;;;;;;;;;;;;;;;;;;4165650;28;19929;-69
2023/12/08 10:20:12;;;;;;;;;;;;;;;;;;4165830;28;19964;-69
2023/12/08 10:22:14;;;;;;;;;;;;;;;;;;4148498;28;19921;-68
2023/12/08 10:24:15;;;;;;;;;;;;;;;;;;4165824;28;19928;-68
2023/12/08 10:26:17;;;;;;;;;;;;;;;;;;4148826;28;20292;-68
2023/12/08 10:28:18;;;;;;;;;;;;;;;;;;4141456;28;19929;-69
2023/12/08 10:30:20;;;;;;;;;;;;;;;;;;4149956;28;20290;-68
2023/12/08 10:32:21;;;;;;;;;;;;;;;;;;4132813;28;19964;-68
2023/12/08 10:34:23;;;;;;;;;;;;;;;;;;4132157;28;19929;-68
2023/12/08 10:36:25;;;;;;;;;;;;;;;;;;4158607;28;20352;-68
2023/12/08 10:38:27;;;;;;;;;;;;;;;;;;4157589;28;20367;-68
2023/12/08 10:40:28;;;;;;;;;;;;;;;;;;4157256;28;19921;-69
2023/12/08 10:42:30;;;;;;;;;;;;;;;;;;4148346;28;19921;-69
2023/12/08 10:44:32;;;;;;;;;;;;;;;;;;4158452;28;19956;-68
2023/12/08 10:46:34;;;;;;;;;;;;;;;;;;4149790;28;19921;-69
2023/12/08 10:48:37;;;;;;;;;;;;;;;;;;4131946;28;19969;-69
2023/12/08 10:50:39;;;;;;;;;;;;;;;;;;4135876;28;19928;-69
2023/12/08 10:52:40;;;;;;;;;;;;;;;;;;4155229;28;19921;-68
2023/12/08 10:54:42;;;;;;;;;;;;;;;;;;4167906;28;19929;-68
2023/12/08 10:56:44;;;;;;;;;;;;;;;;;;4166003;28;20288;-68
2023/12/08 10:58:46;;;;;;;;;;;;;;;;;;4165903;28;19925;-69
2023/12/08 11:00:47;;;;;;;;;;;;;;;;;;4166126;28;19975;-68
2023/12/08 11:02:49;;;;;;;;;;;;;;;;;;4165204;28;20269;-68
2023/12/08 11:04:51;;;;;;;;;;;;;;;;;;4148740;28;20000;-68
2023/12/08 11:06:53;;;;;;;;;;;;;;;;;;4167490;28;19929;-68
2023/12/08 11:08:55;;;;;;;;;;;;;;;;;;4169443;28;19951;-68
2023/12/08 11:10:56;;;;;;;;;;;;;;;;;;4163367;28;19931;-68
2023/12/08 11:12:58;;;;;;;;;;;;;;;;;;4160629;28;19928;-68
2023/12/08 11:14:59;;;;;;;;;;;;;;;;;;4164907;28;19932;-68
2023/12/08 11:17:02;;;;;;;;;;;;;;;;;;4165075;28;20329;-69
2023/12/08 11:19:03;;;;;;;;;;;;;;;;;;4165063;28;20015;-69
2023/12/08 11:21:05;;;;;;;;;;;;;;;;;;4163855;28;19952;-68
2023/12/08 11:23:06;;;;;;;;;;;;;;;;;;4147890;28;19921;-69
2023/12/08 11:25:08;;;;;;;;;;;;;;;;;;4159824;28;19925;-69
2023/12/08 11:27:09;;;;;;;;;;;;;;;;;;4158696;28;20462;-69
2023/12/08 11:29:11;;;;;;;;;;;;;;;;;;4160288;28;20295;-69
2023/12/08 11:31:13;;;;;;;;;;;;;;;;;;4146501;28;19976;-68
2023/12/08 11:33:14;;;;;;;;;;;;;;;;;;4158673;28;20012;-70
2023/12/08 11:35:16;;;;;;;;;;;;;;;;;;4137410;28;19921;-69
2023/12/08 11:37:18;;;;;;;;;;;;;;;;;;4147277;28;19925;-69
2023/12/08 11:39:19;;;;;;;;;;;;;;;;;;4164180;28;19964;-69
2023/12/08 11:41:21;;;;;;;;;;;;;;;;;;4165073;28;19960;-69
2023/12/08 11:43:23;;;;;;;;;;;;;;;;;;4165031;28;19929;-69
2023/12/08 11:45:26;;;;;;;;;;;;;;;;;;4165185;28;20012;-69
2023/12/08 11:47:28;;;;;;;;;;;;;;;;;;4131425;28;19921;-68
2023/12/08 11:49:30;;;;;;;;;;;;;;;;;;4158756;28;19927;-69
2023/12/08 11:51:32;;;;;;;;;;;;;;;;;;4126784;28;19973;-69
2023/12/08 11:53:33;;;;;;;;;;;;;;;;;;4147347;28;19935;-69
2023/12/08 11:55:35;;;;;;;;;;;;;;;;;;4156435;28;19952;-69
2023/12/08 11:57:36;;;;;;;;;;;;;;;;;;4157620;28;19929;-69
2023/12/08 11:59:38;;;;;;;;;;;;;;;;;;4147285;28;19925;-69
2023/12/08 12:01:39;;;;;;;;;;;;;;;;;;4129030;28;19922;-69
2023/12/08 12:03:41;;;;;;;;;;;;;;;;;;4161536;28;19928;-68
2023/12/08 12:05:43;;;;;;;;;;;;;;;;;;4147201;28;19922;-69
2023/12/08 12:07:49;;;;;;;;;;;;;;;;;;4157624;28;19921;-69
2023/12/08 12:09:50;;;;;;;;;;;;;;;;;;4149376;28;20016;-69
2023/12/08 12:11:52;;;;;;;;;;;;;;;;;;4162552;28;19924;-68
2023/12/08 12:13:53;;;;;;;;;;;;;;;;;;4140777;28;19929;-69
2023/12/08 12:15:55;;;;;;;;;;;;;;;;;;4127625;28;20399;-69
2023/12/08 12:17:57;;;;;;;;;;;;;;;;;;4158277;28;19975;-68
2023/12/08 12:19:58;;;;;;;;;;;;;;;;;;4152462;28;20324;-68
2023/12/08 12:22:03;;;;;;;;;;;;;;;;;;4146166;28;19944;-68
2023/12/08 12:24:06;;;;;;;;;;;;;;;;;;4164683;28;19921;-68
2023/12/08 12:26:13;;;;;;;;;;;;;;;;;;4146772;28;20264;-68
2023/12/08 12:28:14;;;;;;;;;;;;;;;;;;4146659;28;19921;-68
2023/12/08 12:30:16;;;;;;;;;;;;;;;;;;4156756;28;19929;-68
2023/12/08 12:32:18;;;;;;;;;;;;;;;;;;4156221;28;19965;-68
2023/12/08 12:34:19;;;;;;;;;;;;;;;;;;4160321;28;19955;-64
2023/12/08 12:36:21;;;;;;;;;;;;;;;;;;4160647;28;20407;-64
2023/12/08 12:38:23;;;;;;;;;;;;;;;;;;4164526;28;19943;-64
2023/12/08 12:40:24;;;;;;;;;;;;;;;;;;4164623;28;20297;-64
2023/12/08 12:42:26;;;;;;;;;;;;;;;;;;4146930;28;19972;-64
2023/12/08 12:44:27;;;;;;;;;;;;;;;;;;4162414;28;19921;-64
2023/12/08 12:46:29;;;;;;;;;;;;;;;;;;4164524;28;19971;-64
2023/12/08 12:48:30;;;;;;;;;;;;;;;;;;4154911;28;19921;-64
2023/12/08 12:50:33;;;;;;;;;;;;;;;;;;4130695;28;19933;-64
2023/12/08 12:52:36;;;;;;;;;;;;;;;;;;4159601;28;19925;-63
2023/12/08 12:54:42;;;;;;;;;;;;;;;;;;4173337;28;19976;-64
2023/12/08 12:56:44;;;;;;;;;;;;;;;;;;4146343;28;19956;-64
2023/12/08 12:58:45;;;;;;;;;;;;;;;;;;4157797;28;20380;-63
2023/12/08 13:00:47;;;;;;;;;;;;;;;;;;4164505;28;19978;-64
2023/12/08 13:02:49;;;;;;;;;;;;;;;;;;4146602;28;19927;-64
2023/12/08 13:04:50;;;;;;;;;;;;;;;;;;4164476;28;19943;-64
2023/12/08 13:06:52;;;;;;;;;;;;;;;;;;4147023;28;20457;-63
2023/12/08 13:08:53;;;;;;;;;;;;;;;;;;4156994;28;20353;-64
2023/12/08 13:10:56;;;;;;;;;;;;;;;;;;4159571;28;19921;-64
2023/12/08 13:12:57;;;;;;;;;;;;;;;;;;4147198;28;19922;-63
2023/12/08 13:14:59;;;;;;;;;;;;;;;;;;4167805;28;19921;-63
2023/12/08 13:17:05;;;;;;;;;;;;;;;;;;4150012;28;19952;-63
2023/12/08 13:19:07;;;;;;;;;;;;;;;;;;4167695;28;19920;-63
2023/12/08 13:21:08;;;;;;;;;;;;;;;;;;4159476;28;20016;-63
2023/12/08 13:23:10;;;;;;;;;;;;;;;;;;4148873;28;20432;-63
2023/12/08 13:25:12;;;;;;;;;;;;;;;;;;4167795;28;19921;-63
2023/12/08 13:27:13;;;;;;;;;;;;;;;;;;4133733;28;19922;-64
2023/12/08 13:29:15;;;;;;;;;;;;;;;;;;4150020;28;19976;-64
2023/12/08 13:31:17;;;;;;;;;;;;;;;;;;4167336;28;19925;-63
2023/12/08 13:33:18;;;;;;;;;;;;;;;;;;4167271;28;19928;-63
2023/12/08 13:35:20;;;;;;;;;;;;;;;;;;4167354;28;19960;-63
2023/12/08 13:37:21;;;;;;;;;;;;;;;;;;4167520;28;19921;-63
2023/12/08 13:39:23;;;;;;;;;;;;;;;;;;4150041;28;19972;-63
2023/12/08 13:41:25;;;;;;;;;;;;;;;;;;4133140;28;19921;-63
2023/12/08 13:43:26;;;;;;;;;;;;;;;;;;4132790;28;19922;-64
2023/12/08 13:45:28;;;;;;;;;;;;;;;;;;4163859;28;19928;-63
2023/12/08 13:47:29;;;;;;;;;;;;;;;;;;4149559;28;19921;-63
2023/12/08 13:49:31;;;;;;;;;;;;;;;;;;4167141;28;19948;-63
2023/12/08 13:51:33;;;;;;;;;;;;;;;;;;4167065;28;19921;-64
2023/12/08 13:53:37;;;;;;;;;;;;;;;;;;4179686;28;19964;-63
2023/12/08 13:55:39;;;;;;;;;;;;;;;;;;4183776;28;19983;-63